Fulton, Maryland
Current Conditions -  °F | °C
As of 2:15 PM on Thursday 30 Oct 2014 (Local Time) from KFME Reporting Station
Broken Clouds Broken Clouds  
Wind Chill: 59°   Ceiling: 6000
Heat Index: 59°   Visibility: 10mi
Dew Point: 37°   Wind: 7mph
Humidity: 45%   Direction: 310°NW
Pressure: 30.05"   Gusts: NA
Location:  39.15°N, 76.92°W
Report Text: KFME 301815Z AUTO 31006KT 10SM SCT049 BKN060 15/03 A3005 RMK AO1
Loading
Personal Weather Stations






























Interactive Weather Map New forecast layout! Learn more

10-Day Weather Forecast

Advertisements
Track Severe Weather on mobile